Αρχική σελίδα
METAR-TAF:

METAR-TAF

Αεροδρόμια :

Sigonella, Ιταλία

γεωγραφικό πλάτος: 37-24N, γεωγραφικό μήκος: 014-55E, υψόμετρο: 22 μ

Παρών καιρός

Η αναφορά έγινε 24 λεπτά πριν, στις 23:55 UTC
Άνεμος 2 kt από Δ/ΝΔ
Θερμοκρασία 26°C
Υγρασία 100%
Πίεση 1011 hPa
Ορατότητα: 9000 μ

METAR: LICZ 222355Z 25002KT 9000 NSC 26/26 Q1011 RMK FEW FEW150 VIS MIN 9000 WIND THR28 22003KT WIND THR10 25003KT A2987 BLU

Χρόνος: 02:19 (00:19 UTC)

Πρόγνωση Καιρού

Η αναφορά έγινε 1 ώρα και 19 λεπτά πριν, στις 23:00 UTC
Η πρόγνωση ισχύει από τις 23 στις 00 UTC έως τις 23 στις 09 UTC
Άνεμος 3 kt από μεταβλητές κατευθύνσεις
Ορατότητα 10 χλμ και άνω
Δεν υπάρχουν νέφη με βάση κάτω από τα 1500 μ. και δεν υπάρχουν νέφη σωρειτομελανίτες.
Καθιστάμενος
από 23 στις 06 UTC έως τις 23 στις 08 UTC
Άνεμος 12 kt από Α

TAF: LICZ 222300Z 2300/2309 VRB03KT CAVOK BECMG 2306/2308 10012KT

Μετεωρολογικές αναφορές και προγνώσεις για περισσότερα από 4000 αεροδρόμια (δελτία METAR και TAF).

Οι διαθέσιμοι σταθμοί απεικονίζονται στο χάρτη με κίτρινες και κόκκινες κουκκίδες.

Μετακινήστε το ποντίκι πάνω από τις κουκκίδες για να δείτε το όνομα του σταθμού.

Στη συνέχεια, κάντε κλικ για να δείτε τις μετεωρολογικές αναφορές και τις προγνώσεις καιρού.

Για να αλλάξετε το χάρτη: κάντε κλικ στα πράσινα κουμπιά με τον μαύρο σταυρό για να ζουμάρετε, στο πράσινο κουμπί με την παύλα για να αφαιρέσετε το ζουμ ή στα πράσινα βέλη για να αντιπαραβάλλετε χάρτες.


METAR-TAF: